sensor_id;sensor_type;location;lat;lon;timestamp;temperature;humidity
32296;DHT22;18781;51.550;5.418;2023-07-20T00:01:28;20.80;62.50
32296;DHT22;18781;51.550;5.418;2023-07-20T00:03:54;20.80;62.60
32296;DHT22;18781;51.550;5.418;2023-07-20T00:06:24;20.80;62.70
32296;DHT22;18781;51.550;5.418;2023-07-20T00:08:50;20.80;63.00
32296;DHT22;18781;51.550;5.418;2023-07-20T00:11:16;20.80;62.90
32296;DHT22;18781;51.550;5.418;2023-07-20T00:13:42;20.80;62.90
32296;DHT22;18781;51.550;5.418;2023-07-20T00:16:07;20.70;62.70
32296;DHT22;18781;51.550;5.418;2023-07-20T00:18:33;20.70;62.80
32296;DHT22;18781;51.550;5.418;2023-07-20T00:20:58;20.70;62.80
32296;DHT22;18781;51.550;5.418;2023-07-20T00:23:27;20.70;63.00
32296;DHT22;18781;51.550;5.418;2023-07-20T00:25:53;20.60;62.90
32296;DHT22;18781;51.550;5.418;2023-07-20T00:28:19;20.70;63.10
32296;DHT22;18781;51.550;5.418;2023-07-20T00:30:44;20.60;63.10
32296;DHT22;18781;51.550;5.418;2023-07-20T00:33:11;20.60;63.10
32296;DHT22;18781;51.550;5.418;2023-07-20T00:35:40;20.60;63.30
32296;DHT22;18781;51.550;5.418;2023-07-20T00:38:05;20.60;63.40
32296;DHT22;18781;51.550;5.418;2023-07-20T00:40:38;20.50;63.40
32296;DHT22;18781;51.550;5.418;2023-07-20T00:43:04;20.50;64.00
32296;DHT22;18781;51.550;5.418;2023-07-20T00:45:30;20.50;63.60
32296;DHT22;18781;51.550;5.418;2023-07-20T00:47:57;20.50;63.70
32296;DHT22;18781;51.550;5.418;2023-07-20T00:50:24;20.50;63.90
32296;DHT22;18781;51.550;5.418;2023-07-20T00:52:49;20.50;64.00
32296;DHT22;18781;51.550;5.418;2023-07-20T00:55:15;20.50;64.00
32296;DHT22;18781;51.550;5.418;2023-07-20T00:57:41;20.40;64.00
32296;DHT22;18781;51.550;5.418;2023-07-20T01:00:07;20.40;64.10
32296;DHT22;18781;51.550;5.418;2023-07-20T01:02:33;20.40;64.20
32296;DHT22;18781;51.550;5.418;2023-07-20T01:04:58;20.40;64.10
32296;DHT22;18781;51.550;5.418;2023-07-20T01:07:29;20.40;64.10
32296;DHT22;18781;51.550;5.418;2023-07-20T01:12:42;20.30;65.00
32296;DHT22;18781;51.550;5.418;2023-07-20T01:15:09;20.30;64.80
32296;DHT22;18781;51.550;5.418;2023-07-20T01:17:35;20.30;64.60
32296;DHT22;18781;51.550;5.418;2023-07-20T01:20:01;20.30;64.80
32296;DHT22;18781;51.550;5.418;2023-07-20T01:31:30;20.20;65.80
32296;DHT22;18781;51.550;5.418;2023-07-20T01:33:58;20.20;66.00
32296;DHT22;18781;51.550;5.418;2023-07-20T01:36:28;20.20;65.40
32296;DHT22;18781;51.550;5.418;2023-07-20T01:38:54;20.20;65.60
32296;DHT22;18781;51.550;5.418;2023-07-20T01:41:21;20.20;65.60
32296;DHT22;18781;51.550;5.418;2023-07-20T01:43:47;20.30;65.80
32296;DHT22;18781;51.550;5.418;2023-07-20T01:46:12;20.30;65.80
32296;DHT22;18781;51.550;5.418;2023-07-20T01:48:38;20.30;65.80
32296;DHT22;18781;51.550;5.418;2023-07-20T01:51:03;20.30;65.90
32296;DHT22;18781;51.550;5.418;2023-07-20T01:53:29;20.30;66.00
32296;DHT22;18781;51.550;5.418;2023-07-20T01:55:55;20.30;66.00
32296;DHT22;18781;51.550;5.418;2023-07-20T01:58:21;20.30;66.10
32296;DHT22;18781;51.550;5.418;2023-07-20T02:00:47;20.30;66.20
32296;DHT22;18781;51.550;5.418;2023-07-20T02:03:12;20.20;66.20
32296;DHT22;18781;51.550;5.418;2023-07-20T02:05:38;20.20;66.40
32296;DHT22;18781;51.550;5.418;2023-07-20T02:08:04;20.20;66.50
32296;DHT22;18781;51.550;5.418;2023-07-20T02:10:30;20.20;66.50
32296;DHT22;18781;51.550;5.418;2023-07-20T02:12:55;20.10;66.60
32296;DHT22;18781;51.550;5.418;2023-07-20T02:15:21;20.10;66.60
32296;DHT22;18781;51.550;5.418;2023-07-20T02:17:47;20.10;66.70
32296;DHT22;18781;51.550;5.418;2023-07-20T02:20:13;20.10;66.90
32296;DHT22;18781;51.550;5.418;2023-07-20T02:22:39;20.10;66.90
32296;DHT22;18781;51.550;5.418;2023-07-20T02:25:05;20.10;67.00
32296;DHT22;18781;51.550;5.418;2023-07-20T02:27:33;20.10;67.10
32296;DHT22;18781;51.550;5.418;2023-07-20T02:29:58;20.00;67.10
32296;DHT22;18781;51.550;5.418;2023-07-20T02:32:24;20.00;67.50
32296;DHT22;18781;51.550;5.418;2023-07-20T02:34:49;20.00;67.20
32296;DHT22;18781;51.550;5.418;2023-07-20T02:37:16;20.00;67.30
32296;DHT22;18781;51.550;5.418;2023-07-20T02:39:41;20.00;67.40
32296;DHT22;18781;51.550;5.418;2023-07-20T02:42:07;20.00;67.40
32296;DHT22;18781;51.550;5.418;2023-07-20T02:44:33;20.10;67.50
32296;DHT22;18781;51.550;5.418;2023-07-20T02:46:58;20.00;67.40
32296;DHT22;18781;51.550;5.418;2023-07-20T02:49:24;20.10;67.60
32296;DHT22;18781;51.550;5.418;2023-07-20T02:51:49;20.10;67.70
32296;DHT22;18781;51.550;5.418;2023-07-20T02:54:15;20.10;67.80
32296;DHT22;18781;51.550;5.418;2023-07-20T02:56:41;20.10;67.80
32296;DHT22;18781;51.550;5.418;2023-07-20T02:59:06;20.10;67.80
32296;DHT22;18781;51.550;5.418;2023-07-20T03:01:32;20.10;67.90
32296;DHT22;18781;51.550;5.418;2023-07-20T03:03:58;20.10;67.90
32296;DHT22;18781;51.550;5.418;2023-07-20T03:06:23;20.10;67.80
32296;DHT22;18781;51.550;5.418;2023-07-20T03:08:49;20.10;68.00
32296;DHT22;18781;51.550;5.418;2023-07-20T03:11:18;20.10;67.80
32296;DHT22;18781;51.550;5.418;2023-07-20T03:13:44;20.10;67.90
32296;DHT22;18781;51.550;5.418;2023-07-20T03:16:11;20.00;67.80
32296;DHT22;18781;51.550;5.418;2023-07-20T03:18:38;20.00;67.80
32296;DHT22;18781;51.550;5.418;2023-07-20T03:21:05;20.00;67.70
32296;DHT22;18781;51.550;5.418;2023-07-20T03:23:31;20.00;67.70
32296;DHT22;18781;51.550;5.418;2023-07-20T03:25:56;19.90;67.70
32296;DHT22;18781;51.550;5.418;2023-07-20T03:28:22;19.90;67.70
32296;DHT22;18781;51.550;5.418;2023-07-20T03:30:56;19.90;67.80
32296;DHT22;18781;51.550;5.418;2023-07-20T03:33:29;19.90;68.20
32296;DHT22;18781;51.550;5.418;2023-07-20T03:35:55;19.80;68.00
32296;DHT22;18781;51.550;5.418;2023-07-20T03:38:24;19.80;67.70
32296;DHT22;18781;51.550;5.418;2023-07-20T03:40:51;19.80;67.70
32296;DHT22;18781;51.550;5.418;2023-07-20T03:43:17;19.80;67.70
32296;DHT22;18781;51.550;5.418;2023-07-20T03:45:43;19.80;67.70
32296;DHT22;18781;51.550;5.418;2023-07-20T03:48:08;19.70;67.70
32296;DHT22;18781;51.550;5.418;2023-07-20T03:50:34;19.70;67.80
32296;DHT22;18781;51.550;5.418;2023-07-20T03:53:00;19.60;67.80
32296;DHT22;18781;51.550;5.418;2023-07-20T03:55:25;19.60;67.90
32296;DHT22;18781;51.550;5.418;2023-07-20T03:57:51;19.60;67.90
32296;DHT22;18781;51.550;5.418;2023-07-20T04:00:17;19.60;67.80
32296;DHT22;18781;51.550;5.418;2023-07-20T04:02:43;19.60;67.90
32296;DHT22;18781;51.550;5.418;2023-07-20T04:05:09;19.50;68.00
32296;DHT22;18781;51.550;5.418;2023-07-20T04:07:35;19.50;68.00
32296;DHT22;18781;51.550;5.418;2023-07-20T04:10:00;19.50;68.00
32296;DHT22;18781;51.550;5.418;2023-07-20T04:12:26;19.50;68.00
32296;DHT22;18781;51.550;5.418;2023-07-20T04:14:51;19.50;68.10
32296;DHT22;18781;51.550;5.418;2023-07-20T04:17:18;19.50;68.00
32296;DHT22;18781;51.550;5.418;2023-07-20T04:19:43;19.40;68.00
32296;DHT22;18781;51.550;5.418;2023-07-20T04:22:09;19.50;68.60
32296;DHT22;18781;51.550;5.418;2023-07-20T04:24:35;19.50;68.00
32296;DHT22;18781;51.550;5.418;2023-07-20T04:27:00;19.40;68.00
32296;DHT22;18781;51.550;5.418;2023-07-20T04:29:26;19.40;68.00
32296;DHT22;18781;51.550;5.418;2023-07-20T04:31:51;19.40;68.00
32296;DHT22;18781;51.550;5.418;2023-07-20T04:34:17;19.40;68.00
32296;DHT22;18781;51.550;5.418;2023-07-20T04:36:42;19.40;68.00
32296;DHT22;18781;51.550;5.418;2023-07-20T04:39:09;19.40;68.00
32296;DHT22;18781;51.550;5.418;2023-07-20T04:41:35;19.40;68.10
32296;DHT22;18781;51.550;5.418;2023-07-20T04:44:01;19.40;68.00
32296;DHT22;18781;51.550;5.418;2023-07-20T04:46:26;19.40;68.10
32296;DHT22;18781;51.550;5.418;2023-07-20T04:48:52;19.40;68.10
32296;DHT22;18781;51.550;5.418;2023-07-20T04:51:17;19.40;68.20
32296;DHT22;18781;51.550;5.418;2023-07-20T04:53:49;19.40;68.40
32296;DHT22;18781;51.550;5.418;2023-07-20T04:56:15;19.40;68.40
32296;DHT22;18781;51.550;5.418;2023-07-20T04:58:40;19.40;68.20
32296;DHT22;18781;51.550;5.418;2023-07-20T05:01:07;19.40;68.40
32296;DHT22;18781;51.550;5.418;2023-07-20T05:03:33;19.40;68.40
32296;DHT22;18781;51.550;5.418;2023-07-20T05:05:58;19.40;68.40
32296;DHT22;18781;51.550;5.418;2023-07-20T05:08:25;19.40;68.40
32296;DHT22;18781;51.550;5.418;2023-07-20T05:10:50;19.40;68.40
32296;DHT22;18781;51.550;5.418;2023-07-20T05:13:16;19.40;68.40
32296;DHT22;18781;51.550;5.418;2023-07-20T05:15:42;19.40;68.40
32296;DHT22;18781;51.550;5.418;2023-07-20T05:18:07;19.40;68.50
32296;DHT22;18781;51.550;5.418;2023-07-20T05:20:34;19.40;68.50
32296;DHT22;18781;51.550;5.418;2023-07-20T05:23:00;19.40;68.40
32296;DHT22;18781;51.550;5.418;2023-07-20T05:25:26;19.40;68.50
32296;DHT22;18781;51.550;5.418;2023-07-20T05:27:52;19.40;68.50
32296;DHT22;18781;51.550;5.418;2023-07-20T05:30:18;19.40;68.60
32296;DHT22;18781;51.550;5.418;2023-07-20T05:32:44;19.30;68.80
32296;DHT22;18781;51.550;5.418;2023-07-20T05:35:12;19.40;68.90
32296;DHT22;18781;51.550;5.418;2023-07-20T05:37:39;19.40;69.00
32296;DHT22;18781;51.550;5.418;2023-07-20T05:40:05;19.40;69.20
32296;DHT22;18781;51.550;5.418;2023-07-20T05:42:31;19.40;69.30
32296;DHT22;18781;51.550;5.418;2023-07-20T05:44:57;19.40;69.40
32296;DHT22;18781;51.550;5.418;2023-07-20T05:47:22;19.50;69.50
32296;DHT22;18781;51.550;5.418;2023-07-20T05:49:48;19.50;69.50
32296;DHT22;18781;51.550;5.418;2023-07-20T05:52:14;19.60;69.60
32296;DHT22;18781;51.550;5.418;2023-07-20T05:54:39;19.60;69.20
32296;DHT22;18781;51.550;5.418;2023-07-20T05:57:05;19.70;69.20
32296;DHT22;18781;51.550;5.418;2023-07-20T05:59:31;19.70;69.20
32296;DHT22;18781;51.550;5.418;2023-07-20T06:01:57;19.70;69.20
32296;DHT22;18781;51.550;5.418;2023-07-20T06:04:22;19.80;68.90
32296;DHT22;18781;51.550;5.418;2023-07-20T06:06:49;19.80;68.80
32296;DHT22;18781;51.550;5.418;2023-07-20T06:09:14;19.80;68.60
32296;DHT22;18781;51.550;5.418;2023-07-20T06:11:40;19.80;68.20
32296;DHT22;18781;51.550;5.418;2023-07-20T06:14:05;19.80;68.20
32296;DHT22;18781;51.550;5.418;2023-07-20T06:16:31;19.90;68.00
32296;DHT22;18781;51.550;5.418;2023-07-20T06:18:57;19.90;67.80
32296;DHT22;18781;51.550;5.418;2023-07-20T06:21:22;19.90;67.80
32296;DHT22;18781;51.550;5.418;2023-07-20T06:23:48;19.80;67.90
32296;DHT22;18781;51.550;5.418;2023-07-20T06:26:13;19.90;67.90
32296;DHT22;18781;51.550;5.418;2023-07-20T06:28:39;19.90;67.90
32296;DHT22;18781;51.550;5.418;2023-07-20T06:31:04;19.90;67.90
32296;DHT22;18781;51.550;5.418;2023-07-20T06:33:30;19.90;67.90
32296;DHT22;18781;51.550;5.418;2023-07-20T06:35:57;19.90;67.90
32296;DHT22;18781;51.550;5.418;2023-07-20T06:38:23;19.90;68.00
32296;DHT22;18781;51.550;5.418;2023-07-20T06:40:49;19.90;68.00
32296;DHT22;18781;51.550;5.418;2023-07-20T06:43:15;20.00;68.00
32296;DHT22;18781;51.550;5.418;2023-07-20T06:45:41;20.00;67.90
32296;DHT22;18781;51.550;5.418;2023-07-20T06:48:07;20.00;68.00
32296;DHT22;18781;51.550;5.418;2023-07-20T06:50:33;20.00;68.00
32296;DHT22;18781;51.550;5.418;2023-07-20T06:52:59;20.10;67.70
32296;DHT22;18781;51.550;5.418;2023-07-20T06:55:25;20.10;67.50
32296;DHT22;18781;51.550;5.418;2023-07-20T06:57:51;20.10;67.70
32296;DHT22;18781;51.550;5.418;2023-07-20T07:00:17;20.20;67.70
32296;DHT22;18781;51.550;5.418;2023-07-20T07:02:43;20.20;67.60
32296;DHT22;18781;51.550;5.418;2023-07-20T07:05:09;20.20;67.40
32296;DHT22;18781;51.550;5.418;2023-07-20T07:07:34;20.30;67.30
32296;DHT22;18781;51.550;5.418;2023-07-20T07:10:01;20.30;67.20
32296;DHT22;18781;51.550;5.418;2023-07-20T07:12:29;20.30;67.20
32296;DHT22;18781;51.550;5.418;2023-07-20T07:14:55;20.30;67.10
32296;DHT22;18781;51.550;5.418;2023-07-20T07:17:20;20.30;67.00
32296;DHT22;18781;51.550;5.418;2023-07-20T07:19:46;20.40;66.80
32296;DHT22;18781;51.550;5.418;2023-07-20T07:22:11;20.40;66.70
32296;DHT22;18781;51.550;5.418;2023-07-20T07:24:37;20.40;67.00
32296;DHT22;18781;51.550;5.418;2023-07-20T07:27:03;20.60;67.30
32296;DHT22;18781;51.550;5.418;2023-07-20T07:29:29;20.60;66.30
32296;DHT22;18781;51.550;5.418;2023-07-20T07:31:55;20.60;66.20
32296;DHT22;18781;51.550;5.418;2023-07-20T07:34:20;20.70;65.80
32296;DHT22;18781;51.550;5.418;2023-07-20T07:36:46;20.80;65.70
32296;DHT22;18781;51.550;5.418;2023-07-20T07:39:12;20.80;65.80
32296;DHT22;18781;51.550;5.418;2023-07-20T07:41:38;20.90;65.20
32296;DHT22;18781;51.550;5.418;2023-07-20T07:44:04;21.00;65.60
32296;DHT22;18781;51.550;5.418;2023-07-20T07:46:29;21.00;65.50
32296;DHT22;18781;51.550;5.418;2023-07-20T07:48:55;21.10;65.60
32296;DHT22;18781;51.550;5.418;2023-07-20T07:51:20;21.10;64.80
32296;DHT22;18781;51.550;5.418;2023-07-20T07:53:46;21.20;64.40
32296;DHT22;18781;51.550;5.418;2023-07-20T07:56:12;21.20;64.00
32296;DHT22;18781;51.550;5.418;2023-07-20T07:58:37;21.30;64.20
32296;DHT22;18781;51.550;5.418;2023-07-20T08:01:04;21.30;64.10
32296;DHT22;18781;51.550;5.418;2023-07-20T08:03:29;21.30;63.80
32296;DHT22;18781;51.550;5.418;2023-07-20T08:05:55;21.30;63.70
32296;DHT22;18781;51.550;5.418;2023-07-20T08:08:22;21.30;63.50
32296;DHT22;18781;51.550;5.418;2023-07-20T08:10:48;21.20;63.30
32296;DHT22;18781;51.550;5.418;2023-07-20T08:13:14;21.20;63.00
32296;DHT22;18781;51.550;5.418;2023-07-20T08:15:39;21.20;63.10
32296;DHT22;18781;51.550;5.418;2023-07-20T08:18:06;21.20;63.40
32296;DHT22;18781;51.550;5.418;2023-07-20T08:20:32;21.30;63.60
32296;DHT22;18781;51.550;5.418;2023-07-20T08:23:01;21.30;63.40
32296;DHT22;18781;51.550;5.418;2023-07-20T08:25:26;21.40;62.60
32296;DHT22;18781;51.550;5.418;2023-07-20T08:27:52;21.40;61.60
32296;DHT22;18781;51.550;5.418;2023-07-20T08:30:21;21.50;62.30
32296;DHT22;18781;51.550;5.418;2023-07-20T08:32:46;21.50;62.10
32296;DHT22;18781;51.550;5.418;2023-07-20T08:35:12;21.60;61.10
32296;DHT22;18781;51.550;5.418;2023-07-20T08:37:38;21.70;61.40
32296;DHT22;18781;51.550;5.418;2023-07-20T08:40:04;21.70;61.30
32296;DHT22;18781;51.550;5.418;2023-07-20T08:42:29;21.80;61.20
32296;DHT22;18781;51.550;5.418;2023-07-20T08:44:56;21.90;60.50
32296;DHT22;18781;51.550;5.418;2023-07-20T08:47:24;21.90;60.00
32296;DHT22;18781;51.550;5.418;2023-07-20T08:49:51;22.00;60.60
32296;DHT22;18781;51.550;5.418;2023-07-20T08:52:17;22.00;60.80
32296;DHT22;18781;51.550;5.418;2023-07-20T08:54:42;22.10;60.30
32296;DHT22;18781;51.550;5.418;2023-07-20T08:57:08;22.20;60.40
32296;DHT22;18781;51.550;5.418;2023-07-20T08:59:37;22.20;59.30
32296;DHT22;18781;51.550;5.418;2023-07-20T09:02:04;22.30;60.80
32296;DHT22;18781;51.550;5.418;2023-07-20T09:04:30;22.30;58.90
32296;DHT22;18781;51.550;5.418;2023-07-20T09:06:57;22.30;59.10
32296;DHT22;18781;51.550;5.418;2023-07-20T09:09:22;22.30;59.10
32296;DHT22;18781;51.550;5.418;2023-07-20T09:11:51;22.40;59.60
32296;DHT22;18781;51.550;5.418;2023-07-20T09:14:17;22.40;59.30
32296;DHT22;18781;51.550;5.418;2023-07-20T09:16:50;22.50;59.60
32296;DHT22;18781;51.550;5.418;2023-07-20T09:19:18;22.60;58.50
32296;DHT22;18781;51.550;5.418;2023-07-20T09:21:49;22.60;58.40
32296;DHT22;18781;51.550;5.418;2023-07-20T09:24:20;22.70;58.60
32296;DHT22;18781;51.550;5.418;2023-07-20T09:26:47;22.70;58.60
32296;DHT22;18781;51.550;5.418;2023-07-20T09:29:19;22.80;59.20
32296;DHT22;18781;51.550;5.418;2023-07-20T09:32:02;22.90;58.60
32296;DHT22;18781;51.550;5.418;2023-07-20T09:34:32;23.00;57.70
32296;DHT22;18781;51.550;5.418;2023-07-20T09:36:59;23.00;57.90
32296;DHT22;18781;51.550;5.418;2023-07-20T09:39:24;23.10;57.70
32296;DHT22;18781;51.550;5.418;2023-07-20T09:41:51;23.10;57.70
32296;DHT22;18781;51.550;5.418;2023-07-20T09:44:17;23.20;57.80
32296;DHT22;18781;51.550;5.418;2023-07-20T09:46:48;23.30;56.50
32296;DHT22;18781;51.550;5.418;2023-07-20T09:49:14;23.40;55.10
32296;DHT22;18781;51.550;5.418;2023-07-20T09:51:44;23.40;56.80
32296;DHT22;18781;51.550;5.418;2023-07-20T09:54:10;23.50;55.70
32296;DHT22;18781;51.550;5.418;2023-07-20T09:56:38;23.50;54.70
32296;DHT22;18781;51.550;5.418;2023-07-20T09:59:04;23.60;54.30
32296;DHT22;18781;51.550;5.418;2023-07-20T10:01:30;23.60;55.10
32296;DHT22;18781;51.550;5.418;2023-07-20T10:03:58;23.60;55.40
32296;DHT22;18781;51.550;5.418;2023-07-20T10:06:28;23.80;54.60
32296;DHT22;18781;51.550;5.418;2023-07-20T10:09:02;23.80;53.80
32296;DHT22;18781;51.550;5.418;2023-07-20T10:11:35;23.90;52.60
32296;DHT22;18781;51.550;5.418;2023-07-20T10:14:04;24.00;52.30
32296;DHT22;18781;51.550;5.418;2023-07-20T10:16:38;24.00;53.40
32296;DHT22;18781;51.550;5.418;2023-07-20T10:19:13;24.10;53.90
32296;DHT22;18781;51.550;5.418;2023-07-20T10:21:42;24.20;53.90
32296;DHT22;18781;51.550;5.418;2023-07-20T10:24:09;24.30;53.70
32296;DHT22;18781;51.550;5.418;2023-07-20T10:26:36;24.40;53.80
32296;DHT22;18781;51.550;5.418;2023-07-20T10:29:02;24.50;52.60
32296;DHT22;18781;51.550;5.418;2023-07-20T10:31:29;24.50;52.90
32296;DHT22;18781;51.550;5.418;2023-07-20T10:33:57;24.60;52.40
32296;DHT22;18781;51.550;5.418;2023-07-20T10:36:26;24.70;52.30
32296;DHT22;18781;51.550;5.418;2023-07-20T10:38:54;24.80;51.70
32296;DHT22;18781;51.550;5.418;2023-07-20T10:41:21;24.90;50.30
32296;DHT22;18781;51.550;5.418;2023-07-20T10:43:50;24.90;50.70
32296;DHT22;18781;51.550;5.418;2023-07-20T10:46:34;25.00;50.80
32296;DHT22;18781;51.550;5.418;2023-07-20T10:49:08;25.00;51.60
32296;DHT22;18781;51.550;5.418;2023-07-20T10:51:45;25.10;51.30
32296;DHT22;18781;51.550;5.418;2023-07-20T10:56:44;25.30;49.50
32296;DHT22;18781;51.550;5.418;2023-07-20T10:59:20;25.40;50.10
32296;DHT22;18781;51.550;5.418;2023-07-20T11:02:08;25.50;49.90
32296;DHT22;18781;51.550;5.418;2023-07-20T11:04:44;25.50;49.40
32296;DHT22;18781;51.550;5.418;2023-07-20T11:07:10;25.60;49.30
32296;DHT22;18781;51.550;5.418;2023-07-20T11:09:40;25.60;48.80
32296;DHT22;18781;51.550;5.418;2023-07-20T11:12:10;25.50;48.50
32296;DHT22;18781;51.550;5.418;2023-07-20T11:14:56;25.50;48.20
32296;DHT22;18781;51.550;5.418;2023-07-20T11:17:30;25.50;49.10
32296;DHT22;18781;51.550;5.418;2023-07-20T11:19:56;25.60;48.40
32296;DHT22;18781;51.550;5.418;2023-07-20T11:22:22;25.60;49.00
32296;DHT22;18781;51.550;5.418;2023-07-20T11:24:48;25.60;49.10
32296;DHT22;18781;51.550;5.418;2023-07-20T11:27:14;25.50;49.00
32296;DHT22;18781;51.550;5.418;2023-07-20T11:29:40;25.60;49.00
32296;DHT22;18781;51.550;5.418;2023-07-20T11:32:06;25.60;48.70
32296;DHT22;18781;51.550;5.418;2023-07-20T11:34:33;25.60;48.90
32296;DHT22;18781;51.550;5.418;2023-07-20T11:36:59;25.60;48.50
32296;DHT22;18781;51.550;5.418;2023-07-20T11:39:25;25.60;48.90
32296;DHT22;18781;51.550;5.418;2023-07-20T11:41:55;25.60;48.80
32296;DHT22;18781;51.550;5.418;2023-07-20T11:44:23;25.60;48.00
32296;DHT22;18781;51.550;5.418;2023-07-20T11:47:11;25.60;48.10
32296;DHT22;18781;51.550;5.418;2023-07-20T11:49:38;25.60;48.30
32296;DHT22;18781;51.550;5.418;2023-07-20T11:52:06;25.60;48.30
32296;DHT22;18781;51.550;5.418;2023-07-20T11:54:33;25.50;47.60
32296;DHT22;18781;51.550;5.418;2023-07-20T11:57:04;25.50;47.50
32296;DHT22;18781;51.550;5.418;2023-07-20T11:59:31;25.40;47.40
32296;DHT22;18781;51.550;5.418;2023-07-20T12:01:57;25.40;47.50
32296;DHT22;18781;51.550;5.418;2023-07-20T12:04:23;25.30;47.80
32296;DHT22;18781;51.550;5.418;2023-07-20T12:06:48;25.30;48.00
32296;DHT22;18781;51.550;5.418;2023-07-20T12:09:16;25.30;48.70
32296;DHT22;18781;51.550;5.418;2023-07-20T12:11:43;25.30;48.80
32296;DHT22;18781;51.550;5.418;2023-07-20T12:14:10;25.30;49.00
32296;DHT22;18781;51.550;5.418;2023-07-20T12:16:37;25.30;48.10
32296;DHT22;18781;51.550;5.418;2023-07-20T12:19:11;25.30;47.60
32296;DHT22;18781;51.550;5.418;2023-07-20T12:21:38;25.30;47.60
32296;DHT22;18781;51.550;5.418;2023-07-20T12:24:04;25.30;47.70
32296;DHT22;18781;51.550;5.418;2023-07-20T12:26:31;25.30;48.20
32296;DHT22;18781;51.550;5.418;2023-07-20T12:28:56;25.30;48.10
32296;DHT22;18781;51.550;5.418;2023-07-20T12:31:23;25.30;47.80
32296;DHT22;18781;51.550;5.418;2023-07-20T12:33:50;25.20;47.90
32296;DHT22;18781;51.550;5.418;2023-07-20T12:36:16;25.20;47.40
32296;DHT22;18781;51.550;5.418;2023-07-20T12:38:42;25.20;47.60
32296;DHT22;18781;51.550;5.418;2023-07-20T12:41:10;25.20;47.30
32296;DHT22;18781;51.550;5.418;2023-07-20T12:43:38;25.20;47.00
32296;DHT22;18781;51.550;5.418;2023-07-20T12:46:03;25.20;47.00
32296;DHT22;18781;51.550;5.418;2023-07-20T12:48:29;25.20;47.70
32296;DHT22;18781;51.550;5.418;2023-07-20T12:50:55;25.20;47.50
32296;DHT22;18781;51.550;5.418;2023-07-20T12:53:20;25.20;46.90
32296;DHT22;18781;51.550;5.418;2023-07-20T12:55:47;25.20;46.90
32296;DHT22;18781;51.550;5.418;2023-07-20T12:58:13;25.20;47.60
32296;DHT22;18781;51.550;5.418;2023-07-20T13:00:39;25.20;47.30
32296;DHT22;18781;51.550;5.418;2023-07-20T13:03:04;25.20;47.50
32296;DHT22;18781;51.550;5.418;2023-07-20T13:05:31;25.10;47.50
32296;DHT22;18781;51.550;5.418;2023-07-20T13:07:57;25.10;47.30
32296;DHT22;18781;51.550;5.418;2023-07-20T13:10:23;25.10;47.20
32296;DHT22;18781;51.550;5.418;2023-07-20T13:12:49;25.10;47.70
32296;DHT22;18781;51.550;5.418;2023-07-20T13:15:14;25.10;47.30
32296;DHT22;18781;51.550;5.418;2023-07-20T13:17:40;25.10;47.00
32296;DHT22;18781;51.550;5.418;2023-07-20T13:20:08;25.10;47.90
32296;DHT22;18781;51.550;5.418;2023-07-20T13:22:35;25.10;47.40
32296;DHT22;18781;51.550;5.418;2023-07-20T13:25:01;25.10;48.60
32296;DHT22;18781;51.550;5.418;2023-07-20T13:27:26;25.10;47.50
32296;DHT22;18781;51.550;5.418;2023-07-20T13:29:52;25.10;47.80
32296;DHT22;18781;51.550;5.418;2023-07-20T13:32:18;25.20;48.20
32296;DHT22;18781;51.550;5.418;2023-07-20T13:34:44;25.20;48.40
32296;DHT22;18781;51.550;5.418;2023-07-20T13:37:10;25.30;48.40
32296;DHT22;18781;51.550;5.418;2023-07-20T13:39:37;25.40;48.50
32296;DHT22;18781;51.550;5.418;2023-07-20T13:42:03;25.50;47.80
32296;DHT22;18781;51.550;5.418;2023-07-20T13:44:31;25.50;46.80
32296;DHT22;18781;51.550;5.418;2023-07-20T13:46:56;25.60;46.40
32296;DHT22;18781;51.550;5.418;2023-07-20T13:49:22;25.60;46.60
32296;DHT22;18781;51.550;5.418;2023-07-20T13:51:47;25.60;46.30
32296;DHT22;18781;51.550;5.418;2023-07-20T13:54:13;25.60;46.80
32296;DHT22;18781;51.550;5.418;2023-07-20T13:56:39;25.60;47.30
32296;DHT22;18781;51.550;5.418;2023-07-20T13:59:04;25.60;47.30
32296;DHT22;18781;51.550;5.418;2023-07-20T14:01:30;25.60;47.10
32296;DHT22;18781;51.550;5.418;2023-07-20T14:03:58;25.60;46.50
32296;DHT22;18781;51.550;5.418;2023-07-20T14:06:24;25.60;46.30
32296;DHT22;18781;51.550;5.418;2023-07-20T14:08:49;25.70;46.50
32296;DHT22;18781;51.550;5.418;2023-07-20T14:11:15;25.60;46.10
32296;DHT22;18781;51.550;5.418;2023-07-20T14:13:41;25.60;46.40
32296;DHT22;18781;51.550;5.418;2023-07-20T14:16:07;25.60;46.30
32296;DHT22;18781;51.550;5.418;2023-07-20T14:18:33;25.60;47.00
32296;DHT22;18781;51.550;5.418;2023-07-20T14:20:58;25.60;46.50
32296;DHT22;18781;51.550;5.418;2023-07-20T14:23:24;25.60;46.50
32296;DHT22;18781;51.550;5.418;2023-07-20T14:25:50;25.70;46.70
32296;DHT22;18781;51.550;5.418;2023-07-20T14:28:15;25.70;46.70
32296;DHT22;18781;51.550;5.418;2023-07-20T14:30:41;25.70;46.40
32296;DHT22;18781;51.550;5.418;2023-07-20T14:33:07;25.80;46.40
32296;DHT22;18781;51.550;5.418;2023-07-20T14:35:33;25.80;46.10
32296;DHT22;18781;51.550;5.418;2023-07-20T14:37:59;25.80;45.50
32296;DHT22;18781;51.550;5.418;2023-07-20T14:40:25;25.80;45.80
32296;DHT22;18781;51.550;5.418;2023-07-20T14:42:50;25.80;45.70
32296;DHT22;18781;51.550;5.418;2023-07-20T14:45:17;25.80;45.30
32296;DHT22;18781;51.550;5.418;2023-07-20T14:47:43;25.80;45.90
32296;DHT22;18781;51.550;5.418;2023-07-20T14:50:09;25.80;46.30
32296;DHT22;18781;51.550;5.418;2023-07-20T14:52:34;25.80;46.40
32296;DHT22;18781;51.550;5.418;2023-07-20T14:55:00;25.90;46.10
32296;DHT22;18781;51.550;5.418;2023-07-20T14:57:26;25.90;45.90
32296;DHT22;18781;51.550;5.418;2023-07-20T14:59:51;26.00;45.80
32296;DHT22;18781;51.550;5.418;2023-07-20T15:02:20;26.00;46.00
32296;DHT22;18781;51.550;5.418;2023-07-20T15:04:50;26.00;46.00
32296;DHT22;18781;51.550;5.418;2023-07-20T15:07:20;26.00;45.70
32296;DHT22;18781;51.550;5.418;2023-07-20T15:09:47;26.00;46.00
32296;DHT22;18781;51.550;5.418;2023-07-20T15:12:13;26.10;45.40
32296;DHT22;18781;51.550;5.418;2023-07-20T15:14:40;26.00;45.70
32296;DHT22;18781;51.550;5.418;2023-07-20T15:17:06;26.10;45.40
32296;DHT22;18781;51.550;5.418;2023-07-20T15:19:31;26.10;45.20
32296;DHT22;18781;51.550;5.418;2023-07-20T15:21:57;26.10;45.50
32296;DHT22;18781;51.550;5.418;2023-07-20T15:24:22;26.00;45.50
32296;DHT22;18781;51.550;5.418;2023-07-20T15:26:48;26.10;46.00
32296;DHT22;18781;51.550;5.418;2023-07-20T15:29:13;26.00;46.00
32296;DHT22;18781;51.550;5.418;2023-07-20T15:31:39;26.00;45.90
32296;DHT22;18781;51.550;5.418;2023-07-20T15:34:04;26.10;46.00
32296;DHT22;18781;51.550;5.418;2023-07-20T15:36:30;26.10;46.00
32296;DHT22;18781;51.550;5.418;2023-07-20T15:38:56;26.10;45.70
32296;DHT22;18781;51.550;5.418;2023-07-20T15:41:21;26.00;45.70